Terminal Aerodrome Forecast
Issued by NWS Albany, NY

Home | Current Version | Previous Version | Text Only | Print | Product List | Glossary On
Versions: 1 2 3 4 5 6 7 8 9 10 11 12 13 14 15 16 17 18 19
000
FTUS41 KALY 142300
TAFGFL
TAF
KGFL 142327Z 1500/1524 12003KT P6SM SCT250
     FM150200 00000KT P6SM SKC
     FM150700 00000KT 2SM BR BKN002
     FM151200 VRB03KT P6SM SCT250
     FM152100 17005KT P6SM SCT150 BKN250=

USA.gov is the U.S. government's official web portal to all federal, state and local government web resources and services.